sensor_id;sensor_type;location;lat;lon;timestamp;pressure;altitude;pressure_sealevel;temperature
85812;BMP180;76252;52.146;20.718;2024-02-15T00:01:41;101157.69;;;22.63
85812;BMP180;76252;52.146;20.718;2024-02-15T00:04:06;101156.41;;;22.64
85812;BMP180;76252;52.146;20.718;2024-02-15T00:06:32;101155.16;;;22.65
85812;BMP180;76252;52.146;20.718;2024-02-15T00:08:57;101154.94;;;22.63
85812;BMP180;76252;52.146;20.718;2024-02-15T00:11:22;101152.69;;;22.61
85812;BMP180;76252;52.146;20.718;2024-02-15T00:13:47;101150.47;;;22.60
85812;BMP180;76252;52.146;20.718;2024-02-15T00:16:13;101155.94;;;22.60
85812;BMP180;76252;52.146;20.718;2024-02-15T00:18:38;101158.44;;;22.63
85812;BMP180;76252;52.146;20.718;2024-02-15T00:21:04;101151.44;;;22.62
85812;BMP180;76252;52.146;20.718;2024-02-15T00:23:30;101153.44;;;22.62
85812;BMP180;76252;52.146;20.718;2024-02-15T00:25:57;101153.44;;;22.62
85812;BMP180;76252;52.146;20.718;2024-02-15T00:28:22;101156.41;;;22.64
85812;BMP180;76252;52.146;20.718;2024-02-15T00:30:49;101155.69;;;22.63
85812;BMP180;76252;52.146;20.718;2024-02-15T00:33:14;101162.94;;;22.61
85812;BMP180;76252;52.146;20.718;2024-02-15T00:35:39;101160.19;;;22.61
85812;BMP180;76252;52.146;20.718;2024-02-15T00:38:04;101157.69;;;22.63
85812;BMP180;76252;52.146;20.718;2024-02-15T00:40:31;101162.19;;;22.60
85812;BMP180;76252;52.146;20.718;2024-02-15T00:42:56;101162.94;;;22.61
85812;BMP180;76252;52.146;20.718;2024-02-15T00:45:21;101160.19;;;22.61
85812;BMP180;76252;52.146;20.718;2024-02-15T00:47:47;101154.94;;;22.63
85812;BMP180;76252;52.146;20.718;2024-02-15T00:50:12;101157.44;;;22.61
85812;BMP180;76252;52.146;20.718;2024-02-15T00:52:38;101153.94;;;22.60
85812;BMP180;76252;52.146;20.718;2024-02-15T00:55:03;101157.91;;;22.65
85812;BMP180;76252;52.146;20.718;2024-02-15T00:57:29;101156.19;;;22.62
85812;BMP180;76252;52.146;20.718;2024-02-15T00:59:54;101150.72;;;22.62
85812;BMP180;76252;52.146;20.718;2024-02-15T01:02:19;101159.44;;;22.60
85812;BMP180;76252;52.146;20.718;2024-02-15T01:04:44;101152.97;;;22.58
85812;BMP180;76252;52.146;20.718;2024-02-15T01:07:12;101155.94;;;22.60
85812;BMP180;76252;52.146;20.718;2024-02-15T01:09:38;101140.47;;;22.62
85812;BMP180;76252;52.146;20.718;2024-02-15T01:12:03;101146.72;;;22.63
85812;BMP180;76252;52.146;20.718;2024-02-15T01:14:30;101149.22;;;22.61
85812;BMP180;76252;52.146;20.718;2024-02-15T01:16:55;101145.72;;;22.60
85812;BMP180;76252;52.146;20.718;2024-02-15T01:19:21;101155.25;;;22.59
85812;BMP180;76252;52.146;20.718;2024-02-15T01:21:46;101150.72;;;22.62
85812;BMP180;76252;52.146;20.718;2024-02-15T01:24:11;101151.97;;;22.61
85812;BMP180;76252;52.146;20.718;2024-02-15T01:26:36;101151.22;;;22.60
85812;BMP180;76252;52.146;20.718;2024-02-15T01:29:02;101150.22;;;22.58
85812;BMP180;76252;52.146;20.718;2024-02-15T01:31:28;101144.47;;;22.61
85812;BMP180;76252;52.146;20.718;2024-02-15T01:33:53;101140.22;;;22.60
85812;BMP180;76252;52.146;20.718;2024-02-15T01:36:18;101149.44;;;22.63
85812;BMP180;76252;52.146;20.718;2024-02-15T01:38:44;101141.72;;;22.61
85812;BMP180;76252;52.146;20.718;2024-02-15T01:41:22;101137.72;;;22.62
85812;BMP180;76252;52.146;20.718;2024-02-15T01:43:48;101131.47;;;22.62
85812;BMP180;76252;52.146;20.718;2024-02-15T01:46:15;101126.72;;;22.62
85812;BMP180;76252;52.146;20.718;2024-02-15T01:48:40;101120.50;;;22.62
85812;BMP180;76252;52.146;20.718;2024-02-15T01:51:07;101119.00;;;22.61
85812;BMP180;76252;52.146;20.718;2024-02-15T01:53:32;101129.25;;;22.60
85812;BMP180;76252;52.146;20.718;2024-02-15T01:55:57;101119.53;;;22.59
85812;BMP180;76252;52.146;20.718;2024-02-15T01:58:26;101124.28;;;22.59
85812;BMP180;76252;52.146;20.718;2024-02-15T02:00:52;101126.25;;;22.58
85812;BMP180;76252;52.146;20.718;2024-02-15T02:03:18;101134.22;;;22.62
85812;BMP180;76252;52.146;20.718;2024-02-15T02:05:45;101144.25;;;22.59
85812;BMP180;76252;52.146;20.718;2024-02-15T02:08:10;101133.50;;;22.56
85812;BMP180;76252;52.146;20.718;2024-02-15T02:10:38;101130.03;;;22.55
85812;BMP180;76252;52.146;20.718;2024-02-15T02:13:04;101127.06;;;22.53
85812;BMP180;76252;52.146;20.718;2024-02-15T02:15:29;101134.03;;;22.54
85812;BMP180;76252;52.146;20.718;2024-02-15T02:17:56;101131.56;;;22.51
85812;BMP180;76252;52.146;20.718;2024-02-15T02:20:23;101123.09;;;22.49
85812;BMP180;76252;52.146;20.718;2024-02-15T02:22:48;101124.56;;;22.50
85812;BMP180;76252;52.146;20.718;2024-02-15T02:25:15;101121.34;;;22.51
85812;BMP180;76252;52.146;20.718;2024-02-15T02:27:41;101119.09;;;22.50
85812;BMP180;76252;52.146;20.718;2024-02-15T02:30:12;101121.09;;;22.49
85812;BMP180;76252;52.146;20.718;2024-02-15T02:32:40;101123.09;;;22.49
85812;BMP180;76252;52.146;20.718;2024-02-15T02:35:05;101126.38;;;22.47
85812;BMP180;76252;52.146;20.718;2024-02-15T02:37:32;101126.38;;;22.47
85812;BMP180;76252;52.146;20.718;2024-02-15T02:40:00;101128.56;;;22.49
85812;BMP180;76252;52.146;20.718;2024-02-15T02:42:26;101125.13;;;22.48
85812;BMP180;76252;52.146;20.718;2024-02-15T02:44:51;101121.16;;;22.43
85812;BMP180;76252;52.146;20.718;2024-02-15T02:47:16;101119.16;;;22.44
85812;BMP180;76252;52.146;20.718;2024-02-15T02:49:41;101123.91;;;22.43
85812;BMP180;76252;52.146;20.718;2024-02-15T02:52:07;101121.38;;;22.45
85812;BMP180;76252;52.146;20.718;2024-02-15T02:54:32;101115.69;;;22.43
85812;BMP180;76252;52.146;20.718;2024-02-15T02:56:58;101119.66;;;22.42
85812;BMP180;76252;52.146;20.718;2024-02-15T02:59:24;101130.16;;;22.44
85812;BMP180;76252;52.146;20.718;2024-02-15T03:01:50;101128.13;;;22.44
85812;BMP180;76252;52.146;20.718;2024-02-15T03:04:15;101133.63;;;22.44
85812;BMP180;76252;52.146;20.718;2024-02-15T03:06:43;101133.38;;;22.42
85812;BMP180;76252;52.146;20.718;2024-02-15T03:09:08;101134.16;;;22.43
85812;BMP180;76252;52.146;20.718;2024-02-15T03:11:35;101138.38;;;22.44
85812;BMP180;76252;52.146;20.718;2024-02-15T03:14:00;101135.84;;;22.46
85812;BMP180;76252;52.146;20.718;2024-02-15T03:16:29;101126.38;;;22.47
85812;BMP180;76252;52.146;20.718;2024-02-15T03:18:54;101121.91;;;22.44
85812;BMP180;76252;52.146;20.718;2024-02-15T03:21:19;101125.13;;;22.42
85812;BMP180;76252;52.146;20.718;2024-02-15T03:23:45;101126.66;;;22.43
85812;BMP180;76252;52.146;20.718;2024-02-15T03:26:10;101126.66;;;22.43
85812;BMP180;76252;52.146;20.718;2024-02-15T03:28:36;101122.13;;;22.46
85812;BMP180;76252;52.146;20.718;2024-02-15T03:31:02;101134.38;;;22.45
85812;BMP180;76252;52.146;20.718;2024-02-15T03:33:28;101130.16;;;22.44
85812;BMP180;76252;52.146;20.718;2024-02-15T03:35:58;101125.38;;;22.44
85812;BMP180;76252;52.146;20.718;2024-02-15T03:38:25;101125.91;;;22.43
85812;BMP180;76252;52.146;20.718;2024-02-15T03:40:51;101119.66;;;22.42
85812;BMP180;76252;52.146;20.718;2024-02-15T03:43:17;101116.63;;;22.46
85812;BMP180;76252;52.146;20.718;2024-02-15T03:45:42;101121.91;;;22.44
85812;BMP180;76252;52.146;20.718;2024-02-15T03:48:09;101116.88;;;22.48
85812;BMP180;76252;52.146;20.718;2024-02-15T03:50:34;101116.13;;;22.48
85812;BMP180;76252;52.146;20.718;2024-02-15T03:53:00;101118.13;;;22.47
85812;BMP180;76252;52.146;20.718;2024-02-15T03:55:25;101121.38;;;22.45
85812;BMP180;76252;52.146;20.718;2024-02-15T03:57:50;101126.38;;;22.47
85812;BMP180;76252;52.146;20.718;2024-02-15T04:00:16;101126.38;;;22.47
85812;BMP180;76252;52.146;20.718;2024-02-15T04:02:45;101124.88;;;22.46
85812;BMP180;76252;52.146;20.718;2024-02-15T04:05:12;101120.13;;;22.47
85812;BMP180;76252;52.146;20.718;2024-02-15T04:07:38;101118.41;;;22.43
85812;BMP180;76252;52.146;20.718;2024-02-15T04:10:06;101118.63;;;22.45
85812;BMP180;76252;52.146;20.718;2024-02-15T04:12:33;101112.41;;;22.45
85812;BMP180;76252;52.146;20.718;2024-02-15T04:14:58;101123.91;;;22.43
85812;BMP180;76252;52.146;20.718;2024-02-15T04:17:30;101118.16;;;22.41
85812;BMP180;76252;52.146;20.718;2024-02-15T04:19:57;101113.91;;;22.40
85812;BMP180;76252;52.146;20.718;2024-02-15T04:22:23;101123.44;;;22.39
85812;BMP180;76252;52.146;20.718;2024-02-15T04:24:48;101115.19;;;22.39
85812;BMP180;76252;52.146;20.718;2024-02-15T04:27:13;101126.66;;;22.43
85812;BMP180;76252;52.146;20.718;2024-02-15T04:29:45;101114.41;;;22.44
85812;BMP180;76252;52.146;20.718;2024-02-15T04:32:11;101118.34;;;22.49
85812;BMP180;76252;52.146;20.718;2024-02-15T04:34:37;101124.09;;;22.51
85812;BMP180;76252;52.146;20.718;2024-02-15T04:37:02;101122.09;;;22.52
85812;BMP180;76252;52.146;20.718;2024-02-15T04:39:31;101123.81;;;22.55
85812;BMP180;76252;52.146;20.718;2024-02-15T04:41:57;101113.13;;;22.51
85812;BMP180;76252;52.146;20.718;2024-02-15T04:44:22;101117.59;;;22.49
85812;BMP180;76252;52.146;20.718;2024-02-15T04:46:52;101122.38;;;22.48
85812;BMP180;76252;52.146;20.718;2024-02-15T04:49:17;101129.63;;;22.45
85812;BMP180;76252;52.146;20.718;2024-02-15T04:51:42;101121.38;;;22.45
85812;BMP180;76252;52.146;20.718;2024-02-15T04:54:08;101124.66;;;22.44
85812;BMP180;76252;52.146;20.718;2024-02-15T04:56:38;101125.91;;;22.43
85812;BMP180;76252;52.146;20.718;2024-02-15T04:59:03;101124.19;;;22.40
85812;BMP180;76252;52.146;20.718;2024-02-15T05:01:28;101124.88;;;22.46
85812;BMP180;76252;52.146;20.718;2024-02-15T05:03:54;101130.16;;;22.44
85812;BMP180;76252;52.146;20.718;2024-02-15T05:06:20;101131.41;;;22.43
85812;BMP180;76252;52.146;20.718;2024-02-15T05:08:45;101138.63;;;22.40
85812;BMP180;76252;52.146;20.718;2024-02-15T05:11:12;101132.41;;;22.40
85812;BMP180;76252;52.146;20.718;2024-02-15T05:13:46;101136.91;;;22.37
85812;BMP180;76252;52.146;20.718;2024-02-15T05:16:11;101140.91;;;22.36
85812;BMP180;76252;52.146;20.718;2024-02-15T05:18:37;101132.94;;;22.33
85812;BMP180;76252;52.146;20.718;2024-02-15T05:21:05;101138.00;;;22.29
85812;BMP180;76252;52.146;20.718;2024-02-15T05:23:34;101138.00;;;22.29
85812;BMP180;76252;52.146;20.718;2024-02-15T05:25:59;101128.28;;;22.28
85812;BMP180;76252;52.146;20.718;2024-02-15T05:28:24;101133.22;;;22.29
85812;BMP180;76252;52.146;20.718;2024-02-15T05:33:37;101146.25;;;22.23
85812;BMP180;76252;52.146;20.718;2024-02-15T05:36:03;101142.75;;;22.23
85812;BMP180;76252;52.146;20.718;2024-02-15T05:38:29;101143.28;;;22.21
85812;BMP180;76252;52.146;20.718;2024-02-15T05:40:54;101138.78;;;22.24
85812;BMP180;76252;52.146;20.718;2024-02-15T05:43:20;101140.97;;;22.25
85812;BMP180;76252;52.146;20.718;2024-02-15T05:45:45;101142.47;;;22.26
85812;BMP180;76252;52.146;20.718;2024-02-15T05:48:10;101149.00;;;22.23
85812;BMP180;76252;52.146;20.718;2024-02-15T05:50:37;101140.78;;;22.23
85812;BMP180;76252;52.146;20.718;2024-02-15T05:53:02;101142.56;;;22.21
85812;BMP180;76252;52.146;20.718;2024-02-15T05:55:28;101141.81;;;22.20
85812;BMP180;76252;52.146;20.718;2024-02-15T05:57:56;101148.50;;;22.19
85812;BMP180;76252;52.146;20.718;2024-02-15T06:00:21;101144.56;;;22.15
85812;BMP180;76252;52.146;20.718;2024-02-15T06:02:46;101147.84;;;22.13
85812;BMP180;76252;52.146;20.718;2024-02-15T06:05:12;101151.06;;;22.12
85812;BMP180;76252;52.146;20.718;2024-02-15T06:07:37;101151.06;;;22.12
85812;BMP180;76252;52.146;20.718;2024-02-15T06:10:02;101152.84;;;22.09
85812;BMP180;76252;52.146;20.718;2024-02-15T06:12:28;101143.63;;;22.06
85812;BMP180;76252;52.146;20.718;2024-02-15T06:14:53;101142.88;;;22.06
85812;BMP180;76252;52.146;20.718;2024-02-15T06:17:19;101145.13;;;22.02
85812;BMP180;76252;52.146;20.718;2024-02-15T06:19:44;101156.09;;;22.08
85812;BMP180;76252;52.146;20.718;2024-02-15T06:22:09;101152.59;;;22.07
85812;BMP180;76252;52.146;20.718;2024-02-15T06:24:34;101156.59;;;22.06
85812;BMP180;76252;52.146;20.718;2024-02-15T06:26:59;101164.81;;;22.06
85812;BMP180;76252;52.146;20.718;2024-02-15T06:29:26;101168.31;;;22.06
85812;BMP180;76252;52.146;20.718;2024-02-15T06:32:10;101162.06;;;22.06
85812;BMP180;76252;52.146;20.718;2024-02-15T06:34:54;101170.56;;;22.08
85812;BMP180;76252;52.146;20.718;2024-02-15T06:37:38;101167.28;;;22.10
85812;BMP180;76252;52.146;20.718;2024-02-15T06:40:22;101168.03;;;22.10
85812;BMP180;76252;52.146;20.718;2024-02-15T06:42:48;101163.56;;;22.13
85812;BMP180;76252;52.146;20.718;2024-02-15T06:45:13;101166.00;;;22.16
85812;BMP180;76252;52.146;20.718;2024-02-15T06:47:42;101174.25;;;22.16
85812;BMP180;76252;52.146;20.718;2024-02-15T06:50:10;101171.50;;;22.16
85812;BMP180;76252;52.146;20.718;2024-02-15T06:52:36;101179.72;;;22.16
85812;BMP180;76252;52.146;20.718;2024-02-15T06:55:01;101176.00;;;22.14
85812;BMP180;76252;52.146;20.718;2024-02-15T06:57:27;101181.94;;;22.18
85812;BMP180;76252;52.146;20.718;2024-02-15T06:59:52;101177.50;;;22.15
85812;BMP180;76252;52.146;20.718;2024-02-15T07:02:18;101183.22;;;22.17
85812;BMP180;76252;52.146;20.718;2024-02-15T07:04:44;101189.22;;;22.15
85812;BMP180;76252;52.146;20.718;2024-02-15T07:07:09;101185.44;;;22.18
85812;BMP180;76252;52.146;20.718;2024-02-15T07:09:35;101183.50;;;22.13
85812;BMP180;76252;52.146;20.718;2024-02-15T07:12:00;101186.72;;;22.12
85812;BMP180;76252;52.146;20.718;2024-02-15T07:14:25;101187.22;;;22.16
85812;BMP180;76252;52.146;20.718;2024-02-15T07:16:52;101185.22;;;22.16
85812;BMP180;76252;52.146;20.718;2024-02-15T07:19:18;101185.97;;;22.17
85812;BMP180;76252;52.146;20.718;2024-02-15T07:21:43;101188.47;;;22.20
85812;BMP180;76252;52.146;20.718;2024-02-15T07:24:09;101186.94;;;22.19
85812;BMP180;76252;52.146;20.718;2024-02-15T07:26:34;101194.16;;;22.28
85812;BMP180;76252;52.146;20.718;2024-02-15T07:29:01;101190.16;;;22.23
85812;BMP180;76252;52.146;20.718;2024-02-15T07:31:30;101187.63;;;22.25
85812;BMP180;76252;52.146;20.718;2024-02-15T07:33:55;101188.38;;;22.26
85812;BMP180;76252;52.146;20.718;2024-02-15T07:36:21;101183.66;;;22.26
85812;BMP180;76252;52.146;20.718;2024-02-15T07:38:46;101190.38;;;22.25
85812;BMP180;76252;52.146;20.718;2024-02-15T07:41:13;101187.13;;;22.27
85812;BMP180;76252;52.146;20.718;2024-02-15T07:43:38;101190.63;;;22.27
85812;BMP180;76252;52.146;20.718;2024-02-15T07:46:04;101196.88;;;22.28
85812;BMP180;76252;52.146;20.718;2024-02-15T07:48:29;101189.88;;;22.27
85812;BMP180;76252;52.146;20.718;2024-02-15T07:50:54;101193.13;;;22.25
85812;BMP180;76252;52.146;20.718;2024-02-15T07:53:20;101190.88;;;22.29
85812;BMP180;76252;52.146;20.718;2024-02-15T07:55:45;101191.34;;;22.33
85812;BMP180;76252;52.146;20.718;2024-02-15T07:58:10;101191.13;;;22.31
85812;BMP180;76252;52.146;20.718;2024-02-15T08:00:35;101186.38;;;22.32
85812;BMP180;76252;52.146;20.718;2024-02-15T08:03:03;101186.38;;;22.32
85812;BMP180;76252;52.146;20.718;2024-02-15T08:05:28;101183.09;;;22.33
85812;BMP180;76252;52.146;20.718;2024-02-15T08:07:53;101183.84;;;22.34
85812;BMP180;76252;52.146;20.718;2024-02-15T08:10:22;101178.34;;;22.34
85812;BMP180;76252;52.146;20.718;2024-02-15T08:12:47;101180.63;;;22.35
85812;BMP180;76252;52.146;20.718;2024-02-15T08:15:17;101182.09;;;22.36
85812;BMP180;76252;52.146;20.718;2024-02-15T08:17:43;101182.34;;;22.33
85812;BMP180;76252;52.146;20.718;2024-02-15T08:20:11;101179.09;;;22.34
85812;BMP180;76252;52.146;20.718;2024-02-15T08:22:36;101186.59;;;22.34
85812;BMP180;76252;52.146;20.718;2024-02-15T08:25:09;101186.88;;;22.30
85812;BMP180;76252;52.146;20.718;2024-02-15T08:27:35;101193.31;;;22.33
85812;BMP180;76252;52.146;20.718;2024-02-15T08:30:05;101194.81;;;22.34
85812;BMP180;76252;52.146;20.718;2024-02-15T08:32:33;101191.59;;;22.35
85812;BMP180;76252;52.146;20.718;2024-02-15T08:34:58;101191.59;;;22.35
85812;BMP180;76252;52.146;20.718;2024-02-15T08:37:24;101189.13;;;22.32
85812;BMP180;76252;52.146;20.718;2024-02-15T08:39:49;101198.09;;;22.32
85812;BMP180;76252;52.146;20.718;2024-02-15T08:42:14;101195.09;;;22.30
85812;BMP180;76252;52.146;20.718;2024-02-15T08:44:39;101205.88;;;22.28
85812;BMP180;76252;52.146;20.718;2024-02-15T08:47:05;101211.09;;;22.26
85812;BMP180;76252;52.146;20.718;2024-02-15T08:49:30;101210.34;;;22.26
85812;BMP180;76252;52.146;20.718;2024-02-15T08:51:56;101205.38;;;22.24
85812;BMP180;76252;52.146;20.718;2024-02-15T08:54:23;101205.13;;;22.22
85812;BMP180;76252;52.146;20.718;2024-02-15T08:56:49;101211.38;;;22.23
85812;BMP180;76252;52.146;20.718;2024-02-15T08:59:14;101208.88;;;22.25
85812;BMP180;76252;52.146;20.718;2024-02-15T09:01:40;101207.88;;;22.28
85812;BMP180;76252;52.146;20.718;2024-02-15T09:04:07;101204.34;;;22.27
85812;BMP180;76252;52.146;20.718;2024-02-15T09:06:32;101213.34;;;22.28
85812;BMP180;76252;52.146;20.718;2024-02-15T09:08:57;101214.09;;;22.28
85812;BMP180;76252;52.146;20.718;2024-02-15T09:11:27;101211.59;;;22.30
85812;BMP180;76252;52.146;20.718;2024-02-15T09:13:53;101211.59;;;22.30
85812;BMP180;76252;52.146;20.718;2024-02-15T09:16:20;101212.53;;;22.33
85812;BMP180;76252;52.146;20.718;2024-02-15T09:18:46;101212.53;;;22.33
85812;BMP180;76252;52.146;20.718;2024-02-15T09:21:12;101213.56;;;22.35
85812;BMP180;76252;52.146;20.718;2024-02-15T09:23:37;101214.31;;;22.36
85812;BMP180;76252;52.146;20.718;2024-02-15T09:26:03;101217.28;;;22.38
85812;BMP180;76252;52.146;20.718;2024-02-15T09:28:29;101219.06;;;22.35
85812;BMP180;76252;52.146;20.718;2024-02-15T09:30:56;101219.06;;;22.35
85812;BMP180;76252;52.146;20.718;2024-02-15T09:33:24;101224.75;;;22.37
85812;BMP180;76252;52.146;20.718;2024-02-15T09:35:51;101220.75;;;22.38
85812;BMP180;76252;52.146;20.718;2024-02-15T09:38:16;101227.97;;;22.41
85812;BMP180;76252;52.146;20.718;2024-02-15T09:40:44;101228.44;;;22.45
85812;BMP180;76252;52.146;20.718;2024-02-15T09:43:14;101228.16;;;22.49
85812;BMP180;76252;52.146;20.718;2024-02-15T09:45:39;101226.47;;;22.46
85812;BMP180;76252;52.146;20.718;2024-02-15T09:48:05;101224.22;;;22.44
85812;BMP180;76252;52.146;20.718;2024-02-15T09:50:32;101228.25;;;22.43
85812;BMP180;76252;52.146;20.718;2024-02-15T09:52:59;101220.00;;;22.43
85812;BMP180;76252;52.146;20.718;2024-02-15T09:55:27;101214.50;;;22.43
85812;BMP180;76252;52.146;20.718;2024-02-15T09:57:53;101214.72;;;22.45
85812;BMP180;76252;52.146;20.718;2024-02-15T10:00:19;101218.97;;;22.47
85812;BMP180;76252;52.146;20.718;2024-02-15T10:02:52;101227.94;;;22.47
85812;BMP180;76252;52.146;20.718;2024-02-15T10:05:20;101220.22;;;22.45
85812;BMP180;76252;52.146;20.718;2024-02-15T10:07:46;101215.25;;;22.44
85812;BMP180;76252;52.146;20.718;2024-02-15T10:10:24;101221.47;;;22.44
85812;BMP180;76252;52.146;20.718;2024-02-15T10:12:50;101209.78;;;22.44
85812;BMP180;76252;52.146;20.718;2024-02-15T10:15:39;101213.97;;;22.45
85812;BMP180;76252;52.146;20.718;2024-02-15T10:18:10;101212.97;;;22.48
85812;BMP180;76252;52.146;20.718;2024-02-15T10:20:40;101219.94;;;22.49
85812;BMP180;76252;52.146;20.718;2024-02-15T10:25:34;101208.94;;;22.55
85812;BMP180;76252;52.146;20.718;2024-02-15T10:28:03;101206.94;;;22.55
85812;BMP180;76252;52.146;20.718;2024-02-15T10:30:31;101206.94;;;22.55
85812;BMP180;76252;52.146;20.718;2024-02-15T10:32:57;101201.19;;;22.53
85812;BMP180;76252;52.146;20.718;2024-02-15T10:35:23;101201.94;;;22.54
85812;BMP180;76252;52.146;20.718;2024-02-15T10:37:49;101196.66;;;22.56
85812;BMP180;76252;52.146;20.718;2024-02-15T10:40:18;101193.41;;;22.57
85812;BMP180;76252;52.146;20.718;2024-02-15T10:42:45;101197.38;;;22.62
85812;BMP180;76252;52.146;20.718;2024-02-15T10:45:11;101196.63;;;22.61
85812;BMP180;76252;52.146;20.718;2024-02-15T10:47:37;101191.41;;;22.58
85812;BMP180;76252;52.146;20.718;2024-02-15T10:50:03;101194.66;;;22.56
85812;BMP180;76252;52.146;20.718;2024-02-15T10:52:30;101192.44;;;22.55
85812;BMP180;76252;52.146;20.718;2024-02-15T10:54:58;101198.69;;;22.55
85812;BMP180;76252;52.146;20.718;2024-02-15T10:57:28;101197.94;;;22.55
85812;BMP180;76252;52.146;20.718;2024-02-15T10:59:56;101190.97;;;22.54
85812;BMP180;76252;52.146;20.718;2024-02-15T11:04:48;101196.91;;;22.58
85812;BMP180;76252;52.146;20.718;2024-02-15T11:07:15;101195.69;;;22.59
85812;BMP180;76252;52.146;20.718;2024-02-15T11:09:40;101195.69;;;22.59
85812;BMP180;76252;52.146;20.718;2024-02-15T11:12:05;101186.41;;;22.62
85812;BMP180;76252;52.146;20.718;2024-02-15T11:14:31;101195.38;;;22.62
85812;BMP180;76252;52.146;20.718;2024-02-15T11:17:00;101191.38;;;22.63
85812;BMP180;76252;52.146;20.718;2024-02-15T11:21:59;101185.63;;;22.67
85812;BMP180;76252;52.146;20.718;2024-02-15T11:24:29;101186.28;;;22.73
85812;BMP180;76252;52.146;20.718;2024-02-15T11:26:58;101179.31;;;22.72
85812;BMP180;76252;52.146;20.718;2024-02-15T11:30:06;101166.84;;;22.71
85812;BMP180;76252;52.146;20.718;2024-02-15T11:32:33;101170.31;;;22.71
85812;BMP180;76252;52.146;20.718;2024-02-15T11:35:17;101169.81;;;22.73
85812;BMP180;76252;52.146;20.718;2024-02-15T11:43:07;101176.81;;;22.74
85812;BMP180;76252;52.146;20.718;2024-02-15T11:45:34;101174.84;;;22.74
85812;BMP180;76252;52.146;20.718;2024-02-15T11:48:04;101168.88;;;22.70
85812;BMP180;76252;52.146;20.718;2024-02-15T11:50:33;101167.59;;;22.71
85812;BMP180;76252;52.146;20.718;2024-02-15T11:53:04;101173.38;;;22.68
85812;BMP180;76252;52.146;20.718;2024-02-15T11:55:36;101168.88;;;22.65
85812;BMP180;76252;52.146;20.718;2024-02-15T11:58:02;101167.63;;;22.66
85812;BMP180;76252;52.146;20.718;2024-02-15T12:00:30;101168.13;;;22.64
85812;BMP180;76252;52.146;20.718;2024-02-15T12:03:15;101164.66;;;22.64
85812;BMP180;76252;52.146;20.718;2024-02-15T12:05:59;101167.41;;;22.64
85812;BMP180;76252;52.146;20.718;2024-02-15T12:08:44;101161.19;;;22.63
85812;BMP180;76252;52.146;20.718;2024-02-15T12:11:28;101159.16;;;22.64
85812;BMP180;76252;52.146;20.718;2024-02-15T12:14:12;101166.13;;;22.65
85812;BMP180;76252;52.146;20.718;2024-02-15T12:16:59;101164.13;;;22.65
85812;BMP180;76252;52.146;20.718;2024-02-15T12:19:43;101158.16;;;22.67
85812;BMP180;76252;52.146;20.718;2024-02-15T12:22:09;101158.63;;;22.71
85812;BMP180;76252;52.146;20.718;2024-02-15T12:24:35;101162.91;;;22.66
85812;BMP180;76252;52.146;20.718;2024-02-15T12:27:00;101158.88;;;22.67
85812;BMP180;76252;52.146;20.718;2024-02-15T12:29:28;101165.13;;;22.68
85812;BMP180;76252;52.146;20.718;2024-02-15T12:31:54;101160.91;;;22.67
85812;BMP180;76252;52.146;20.718;2024-02-15T12:34:19;101157.91;;;22.65
85812;BMP180;76252;52.146;20.718;2024-02-15T12:36:45;101153.44;;;22.62
85812;BMP180;76252;52.146;20.718;2024-02-15T12:39:10;101158.19;;;22.61
85812;BMP180;76252;52.146;20.718;2024-02-15T12:41:39;101155.94;;;22.60
85812;BMP180;76252;52.146;20.718;2024-02-15T12:44:08;101153.72;;;22.58
85812;BMP180;76252;52.146;20.718;2024-02-15T12:46:34;101148.72;;;22.62
85812;BMP180;76252;52.146;20.718;2024-02-15T12:49:27;101144.44;;;22.67
85812;BMP180;76252;52.146;20.718;2024-02-15T12:51:53;101146.13;;;22.70
85812;BMP180;76252;52.146;20.718;2024-02-15T12:54:22;101140.84;;;22.72
85812;BMP180;76252;52.146;20.718;2024-02-15T12:56:47;101130.88;;;22.74
85812;BMP180;76252;52.146;20.718;2024-02-15T12:59:19;101138.34;;;22.74
85812;BMP180;76252;52.146;20.718;2024-02-15T13:01:44;101127.38;;;22.74
85812;BMP180;76252;52.146;20.718;2024-02-15T13:04:20;101132.28;;;22.81
85812;BMP180;76252;52.146;20.718;2024-02-15T13:06:46;101124.28;;;22.83
85812;BMP180;76252;52.146;20.718;2024-02-15T13:09:11;101125.78;;;22.84
85812;BMP180;76252;52.146;20.718;2024-02-15T13:11:37;101119.53;;;22.83
85812;BMP180;76252;52.146;20.718;2024-02-15T13:14:03;101113.00;;;22.87
85812;BMP180;76252;52.146;20.718;2024-02-15T13:16:29;101115.53;;;22.84
85812;BMP180;76252;52.146;20.718;2024-02-15T13:18:56;101122.72;;;22.88
85812;BMP180;76252;52.146;20.718;2024-02-15T13:21:22;101117.75;;;22.86
85812;BMP180;76252;52.146;20.718;2024-02-15T13:23:49;101124.72;;;22.87
85812;BMP180;76252;52.146;20.718;2024-02-15T13:26:15;101119.25;;;22.87
85812;BMP180;76252;52.146;20.718;2024-02-15T13:28:40;101115.25;;;22.88
85812;BMP180;76252;52.146;20.718;2024-02-15T13:31:06;101118.72;;;22.89
85812;BMP180;76252;52.146;20.718;2024-02-15T13:33:32;101118.22;;;22.90
85812;BMP180;76252;52.146;20.718;2024-02-15T13:35:58;101120.25;;;22.90
85812;BMP180;76252;52.146;20.718;2024-02-15T13:38:23;101113.97;;;22.89
85812;BMP180;76252;52.146;20.718;2024-02-15T13:40:48;101122.69;;;22.93
85812;BMP180;76252;52.146;20.718;2024-02-15T13:43:21;101121.13;;;22.98
85812;BMP180;76252;52.146;20.718;2024-02-15T13:45:46;101113.91;;;22.95
85812;BMP180;76252;52.146;20.718;2024-02-15T13:48:11;101111.72;;;22.93
85812;BMP180;76252;52.146;20.718;2024-02-15T13:50:41;101115.91;;;22.94
85812;BMP180;76252;52.146;20.718;2024-02-15T13:53:06;101119.94;;;22.93
85812;BMP180;76252;52.146;20.718;2024-02-15T13:55:34;101117.69;;;22.97
85812;BMP180;76252;52.146;20.718;2024-02-15T13:58:00;101113.88;;;23.00
85812;BMP180;76252;52.146;20.718;2024-02-15T14:00:26;101113.88;;;23.00